Arklow Rogue — EIGD — position and weather

sailwx.info

Track history (hours):
 
Tides and Currents Weather Stations Pressure Air Temp Water Temp Dewpoint Dewpoint Depression Visibility Wind Speed Wind Dir Waves Ship Positions

Arklow Rogue

Last reported at 2016-May-02 12:33 UTC. Time now 2016-May-02 12:35 UTC.
Position N 54°41' W 005°41'.

Length 90 m; draft 3.4 m.

Type: Cargo ship. MMSI: 250000960.

Date/timePositionNaut miles runAvg speedWind from/ knotsBaromVisibWave heightAir tempDewpointWater temp
2016-May-02 12:33N 54°41' W 005°41'0 0.0
2016-May-02 11:33N 54°41' W 005°41'0 0.0
2016-May-02 10:33N 54°41' W 005°41'0 0.0
2016-May-02 09:33N 54°41' W 005°41'0 0.0
2016-May-02 08:33N 54°41' W 005°41'0 0.0
2016-May-02 07:33N 54°41' W 005°41'0 0.0
2016-May-02 06:33N 54°41' W 005°41'0 0.0
2016-May-02 05:33N 54°41' W 005°41'0 0.1
2016-May-02 04:33N 54°41' W 005°41'0 0.1
2016-May-02 03:34N 54°41' W 005°41'8 7.9
2016-May-02 02:33N 54°49' W 005°39'1110.9
2016-May-02 01:33N 55°00' W 005°42'1110.9
2016-May-02 00:34N 55°09' W 005°52'10 9.8
2016-May-01 23:34N 55°17' W 006°02'9 9.0
2016-May-01 22:33N 55°23' W 006°15'10 9.6
2016-May-01 21:33N 55°30' W 006°25'9 9.3
2016-May-01 20:33N 55°38' W 006°33'8 8.2
2016-May-01 19:33N 55°46' W 006°39'189 8.2
2016-Apr-30 20:33N 58°41' W 004°27'1111.3
2016-Apr-30 19:33N 58°42' W 004°06'1111.1
2016-Apr-30 18:33N 58°43' W 003°45'1110.9
2016-Apr-30 17:33N 58°43' W 003°23'10 9.7
2016-Apr-30 16:33N 58°43' W 003°05'7 7.1
2016-Apr-30 15:34N 58°38' W 002°55'10 9.9
2016-Apr-30 14:33N 58°29' W 002°45'6611.0
2016-Apr-30 08:34N 57°33' W 001°40'128 8.8
2016-Apr-29 18:03N 55°26' W 001°16'4 7.9
2016-Apr-29 17:33N 55°22' W 001°15'8 8.1
2016-Apr-29 16:34N 55°14' W 001°13'9 9.1
2016-Apr-29 15:34N 55°05' W 001°12'1010.2
2016-Apr-29 14:33N 54°55' W 001°10'1110.9
2016-Apr-29 13:33N 54°44' W 001°08'8 7.9
2016-Apr-29 12:33N 54°36' W 001°09'0 0.0
2016-Apr-29 11:20N 54°36' W 001°09'0 0.0
2016-Apr-29 10:32N 54°36' W 001°09'0 0.0
2016-Apr-29 09:23N 54°36' W 001°09'0 0.0
2016-Apr-29 07:23N 54°36' W 001°09'0 0.0
2016-Apr-29 06:23N 54°36' W 001°09'0 0.0
2016-Apr-29 05:23N 54°36' W 001°09'0 0.0
2016-Apr-29 04:26N 54°36' W 001°09'0 0.0
2016-Apr-29 03:29N 54°36' W 001°09'0 0.0
2016-Apr-29 02:26N 54°36' W 001°09'0 0.0
2016-Apr-29 01:17N 54°36' W 001°09'0 0.0
2016-Apr-29 00:32N 54°36' W 001°09'0 0.0
2016-Apr-28 22:32N 54°36' W 001°09'0 0.0
2016-Apr-28 21:32N 54°36' W 001°09'0 0.0
2016-Apr-28 20:32N 54°36' W 001°09'0 0.0
2016-Apr-28 19:32N 54°36' W 001°09'0 0.0
2016-Apr-28 18:23N 54°36' W 001°09'0 0.0
2016-Apr-28 17:23N 54°36' W 001°09'0 0.0
2016-Apr-28 16:26N 54°36' W 001°09'0 0.0
2016-Apr-28 15:26N 54°36' W 001°09'0 0.0
2016-Apr-28 14:29N 54°36' W 001°09'0 0.0
2016-Apr-28 12:26N 54°36' W 001°09'0 0.0
2016-Apr-28 11:29N 54°36' W 001°09'0 0.0
2016-Apr-28 10:17N 54°36' W 001°09'0 0.0
2016-Apr-28 09:20N 54°36' W 001°09'0 0.0
2016-Apr-28 08:32N 54°36' W 001°09'0 0.0
2016-Apr-28 07:32N 54°36' W 001°09'0 0.0
2016-Apr-28 06:32N 54°36' W 001°09'0 0.0
2016-Apr-28 05:23N 54°36' W 001°09'0 0.0
2016-Apr-28 03:11N 54°36' W 001°09'0 0.0
2016-Apr-28 02:23N 54°36' W 001°09'0 0.0
2016-Apr-27 23:11N 54°36' W 001°09'0 0.0
2016-Apr-27 21:32N 54°36' W 001°09'0 0.0
2016-Apr-27 19:29N 54°36' W 001°09'0 0.0
2016-Apr-27 18:32N 54°36' W 001°09'0 0.0
2016-Apr-27 17:20N 54°36' W 001°09'0 0.0
2016-Apr-27 16:32N 54°36' W 001°09'0 0.0
2016-Apr-27 15:32N 54°36' W 001°09'0 0.0
2016-Apr-27 14:08N 54°36' W 001°09'0 0.0
2016-Apr-27 13:11N 54°36' W 001°09'0 0.0
2016-Apr-27 12:20N 54°36' W 001°09'0 0.0
2016-Apr-27 11:26N 54°36' W 001°09'0 0.0
2016-Apr-27 10:29N 54°36' W 001°09'0 0.0
2016-Apr-27 08:14N 54°36' W 001°09'0 0.0
2016-Apr-27 06:32N 54°36' W 001°09'0 0.0
2016-Apr-27 04:20N 54°36' W 001°09'0 0.0
2016-Apr-27 02:32N 54°36' W 001°09'0 0.0
2016-Apr-27 01:32N 54°36' W 001°09'0 0.0
2016-Apr-27 00:23N 54°36' W 001°09'0 0.0
2016-Apr-26 23:23N 54°36' W 001°09'0 0.0
2016-Apr-26 22:26N 54°36' W 001°09'0 0.0
2016-Apr-26 21:08N 54°36' W 001°09'0 0.0
2016-Apr-26 20:23N 54°36' W 001°09'0 0.0
2016-Apr-26 19:33N 54°36' W 001°09'6 6.0
2016-Apr-26 18:33N 54°42' W 001°08'1 0.5
2016-Apr-26 17:33N 54°42' W 001°09'8 8.0
2016-Apr-26 16:33N 54°49' W 001°17'2 2.1
2016-Apr-26 15:33N 54°50' W 001°20'0 0.0
2016-Apr-26 14:32N 54°50' W 001°20'0 0.0
2016-Apr-26 13:32N 54°50' W 001°20'0 0.0
2016-Apr-26 12:32N 54°50' W 001°20'0 0.0
2016-Apr-26 11:32N 54°50' W 001°20'0 0.0
2016-Apr-26 10:29N 54°50' W 001°20'0 0.0
2016-Apr-26 09:32N 54°50' W 001°20'0 0.0
2016-Apr-26 08:32N 54°50' W 001°20'0 0.0
2016-Apr-26 07:17N 54°50' W 001°20'0 0.0
2016-Apr-26 06:32N 54°50' W 001°20'0 0.0
2016-Apr-26 05:32N 54°50' W 001°20'0 0.0
2016-Apr-26 04:29N 54°50' W 001°20'0 0.0
2016-Apr-26 01:20N 54°50' W 001°20'0 0.0
2016-Apr-26 00:29N 54°50' W 001°20'0 0.0
2016-Apr-25 23:29N 54°50' W 001°20'0 0.0
2016-Apr-25 22:29N 54°50' W 001°20'0 0.0
2016-Apr-25 21:29N 54°50' W 001°20'0 0.0
2016-Apr-25 20:29N 54°50' W 001°20'0 0.0
2016-Apr-25 19:32N 54°50' W 001°20'0 0.0
2016-Apr-25 18:32N 54°50' W 001°20'0 0.0
2016-Apr-25 17:32N 54°50' W 001°20'0 0.0
2016-Apr-25 16:32N 54°50' W 001°20'0 0.0
2016-Apr-25 15:29N 54°50' W 001°20'0 0.0
2016-Apr-25 14:29N 54°50' W 001°20'0 0.0
2016-Apr-25 13:29N 54°50' W 001°20'0 0.0
2016-Apr-25 12:29N 54°50' W 001°20'0 0.0
2016-Apr-25 11:26N 54°50' W 001°20'0 0.0
2016-Apr-25 10:29N 54°50' W 001°20'0 0.0
2016-Apr-25 09:32N 54°50' W 001°20'0 0.0
2016-Apr-25 08:29N 54°50' W 001°20'0 0.0
2016-Apr-25 07:32N 54°50' W 001°20'0 0.0
2016-Apr-25 06:32N 54°50' W 001°20'0 0.0
2016-Apr-25 05:23N 54°50' W 001°20'0 0.0
2016-Apr-25 04:26N 54°50' W 001°20'0 0.0
2016-Apr-25 03:29N 54°50' W 001°20'0 0.0
2016-Apr-25 02:14N 54°50' W 001°20'0 0.0
2016-Apr-25 01:29N 54°50' W 001°20'0 0.0
2016-Apr-25 00:29N 54°50' W 001°20'0 0.0
2016-Apr-24 23:29N 54°50' W 001°20'0 0.0
2016-Apr-24 22:32N 54°50' W 001°20'0 0.0
2016-Apr-24 21:11N 54°50' W 001°20'0 0.0
2016-Apr-24 20:32N 54°50' W 001°20'0 0.0
2016-Apr-24 19:29N 54°50' W 001°20'0 0.0
2016-Apr-24 18:29N 54°50' W 001°20'0 0.0
2016-Apr-24 17:26N 54°50' W 001°20'0 0.1
2016-Apr-24 16:33N 54°50' W 001°20'2 1.5
2016-Apr-24 15:33N 54°50' W 001°17'4 3.9
2016-Apr-24 14:33N 54°50' W 001°10'8 8.2
2016-Apr-24 13:33N 54°49' W 000°56'10 9.8
2016-Apr-24 12:33N 54°48' W 000°39'1010.0
2016-Apr-24 11:32N 54°47' W 000°22'10 9.9
2016-Apr-24 10:33N 54°46' W 000°05'1110.1
2016-Apr-24 09:28N 54°45' E 000°14'150 9.3
2016-Apr-23 17:23N 54°25' E 004°31'8 9.9
2016-Apr-23 16:33N 54°23' E 004°44'1110.0
2016-Apr-23 15:25N 54°21' E 005°04'910.3
2016-Apr-23 14:33N 54°19' E 005°18'1010.2
2016-Apr-23 13:32N 54°16' E 005°36'1010.1
2016-Apr-23 12:32N 54°15' E 005°53'20 9.3
2016-Apr-23 10:25N 54°12' E 006°26'8 9.0
2016-Apr-23 09:31N 54°12' E 006°40'9 8.9
2016-Apr-23 08:33N 54°12' E 006°55'9 9.0
2016-Apr-23 07:33N 54°12' E 007°10'9 9.2
2016-Apr-23 06:33N 54°12' E 007°26'1010.0
2016-Apr-23 05:33N 54°09' E 007°42'1111.0
2016-Apr-23 04:33N 54°04' E 007°58'1211.5
2016-Apr-23 03:33N 54°00' E 008°17'1313.3
2016-Apr-23 02:33N 53°57' E 008°39'10 9.8
2016-Apr-23 01:33N 53°50' E 008°52'9 9.0
2016-Apr-23 00:33N 53°53' E 009°06'4 3.5
2016-Apr-22 23:33N 53°55' E 009°11'1 0.5
2016-Apr-22 22:28N 53°55' E 009°12'0 0.0
2016-Apr-22 21:31N 53°55' E 009°12'0 0.0
2016-Apr-22 20:31N 53°55' E 009°12'0 0.0
2016-Apr-22 19:31N 53°55' E 009°12'0 0.0
2016-Apr-22 18:25N 53°55' E 009°12'0 0.0
2016-Apr-22 17:31N 53°55' E 009°12'0 0.0
2016-Apr-22 16:28N 53°55' E 009°12'0 0.0
2016-Apr-22 15:31N 53°55' E 009°12'0 0.0
2016-Apr-22 14:31N 53°55' E 009°12'0 0.0
2016-Apr-22 13:31N 53°55' E 009°12'  
Track history (hours):
 
Tides and Currents Weather Stations Pressure Air Temp Water Temp Dewpoint Dewpoint Depression Visibility Wind Speed Wind Dir Waves Ship Positions

Arklow Rogue

Last reported at 2016-May-02 12:33 UTC. Time now 2016-May-02 12:35 UTC.
Position N 54°41' W 005°41'.

Length 90 m; draft 3.4 m.

Type: Cargo ship. MMSI: 250000960.

Date/timePositionNaut miles runAvg speedWind from/ knotsBaromVisibWave heightAir tempDewpointWater temp
2016-May-02 12:33N 54°41' W 005°41'0 0.0
2016-May-02 11:33N 54°41' W 005°41'0 0.0
2016-May-02 10:33N 54°41' W 005°41'0 0.0
2016-May-02 09:33N 54°41' W 005°41'0 0.0
2016-May-02 08:33N 54°41' W 005°41'0 0.0
2016-May-02 07:33N 54°41' W 005°41'0 0.0
2016-May-02 06:33N 54°41' W 005°41'0 0.0
2016-May-02 05:33N 54°41' W 005°41'0 0.1
2016-May-02 04:33N 54°41' W 005°41'0 0.1
2016-May-02 03:34N 54°41' W 005°41'8 7.9
2016-May-02 02:33N 54°49' W 005°39'1110.9
2016-May-02 01:33N 55°00' W 005°42'1110.9
2016-May-02 00:34N 55°09' W 005°52'10 9.8
2016-May-01 23:34N 55°17' W 006°02'9 9.0
2016-May-01 22:33N 55°23' W 006°15'10 9.6
2016-May-01 21:33N 55°30' W 006°25'9 9.3
2016-May-01 20:33N 55°38' W 006°33'8 8.2
2016-May-01 19:33N 55°46' W 006°39'189 8.2
2016-Apr-30 20:33N 58°41' W 004°27'1111.3
2016-Apr-30 19:33N 58°42' W 004°06'1111.1
2016-Apr-30 18:33N 58°43' W 003°45'1110.9
2016-Apr-30 17:33N 58°43' W 003°23'10 9.7
2016-Apr-30 16:33N 58°43' W 003°05'7 7.1
2016-Apr-30 15:34N 58°38' W 002°55'10 9.9
2016-Apr-30 14:33N 58°29' W 002°45'6611.0
2016-Apr-30 08:34N 57°33' W 001°40'128 8.8
2016-Apr-29 18:03N 55°26' W 001°16'4 7.9
2016-Apr-29 17:33N 55°22' W 001°15'8 8.1
2016-Apr-29 16:34N 55°14' W 001°13'9 9.1
2016-Apr-29 15:34N 55°05' W 001°12'1010.2
2016-Apr-29 14:33N 54°55' W 001°10'1110.9
2016-Apr-29 13:33N 54°44' W 001°08'8 7.9
2016-Apr-29 12:33N 54°36' W 001°09'0 0.0
2016-Apr-29 11:20N 54°36' W 001°09'0 0.0
2016-Apr-29 10:32N 54°36' W 001°09'0 0.0
2016-Apr-29 09:23N 54°36' W 001°09'0 0.0
2016-Apr-29 07:23N 54°36' W 001°09'0 0.0
2016-Apr-29 06:23N 54°36' W 001°09'0 0.0
2016-Apr-29 05:23N 54°36' W 001°09'0 0.0
2016-Apr-29 04:26N 54°36' W 001°09'0 0.0
2016-Apr-29 03:29N 54°36' W 001°09'0 0.0
2016-Apr-29 02:26N 54°36' W 001°09'0 0.0
2016-Apr-29 01:17N 54°36' W 001°09'0 0.0
2016-Apr-29 00:32N 54°36' W 001°09'0 0.0
2016-Apr-28 22:32N 54°36' W 001°09'0 0.0
2016-Apr-28 21:32N 54°36' W 001°09'0 0.0
2016-Apr-28 20:32N 54°36' W 001°09'0 0.0
2016-Apr-28 19:32N 54°36' W 001°09'0 0.0
2016-Apr-28 18:23N 54°36' W 001°09'0 0.0
2016-Apr-28 17:23N 54°36' W 001°09'0 0.0
2016-Apr-28 16:26N 54°36' W 001°09'0 0.0
2016-Apr-28 15:26N 54°36' W 001°09'0 0.0
2016-Apr-28 14:29N 54°36' W 001°09'0 0.0
2016-Apr-28 12:26N 54°36' W 001°09'0 0.0
2016-Apr-28 11:29N 54°36' W 001°09'0 0.0
2016-Apr-28 10:17N 54°36' W 001°09'0 0.0
2016-Apr-28 09:20N 54°36' W 001°09'0 0.0
2016-Apr-28 08:32N 54°36' W 001°09'0 0.0
2016-Apr-28 07:32N 54°36' W 001°09'0 0.0
2016-Apr-28 06:32N 54°36' W 001°09'0 0.0
2016-Apr-28 05:23N 54°36' W 001°09'0 0.0
2016-Apr-28 03:11N 54°36' W 001°09'0 0.0
2016-Apr-28 02:23N 54°36' W 001°09'0 0.0
2016-Apr-27 23:11N 54°36' W 001°09'0 0.0
2016-Apr-27 21:32N 54°36' W 001°09'0 0.0
2016-Apr-27 19:29N 54°36' W 001°09'0 0.0
2016-Apr-27 18:32N 54°36' W 001°09'0 0.0
2016-Apr-27 17:20N 54°36' W 001°09'0 0.0
2016-Apr-27 16:32N 54°36' W 001°09'0 0.0
2016-Apr-27 15:32N 54°36' W 001°09'0 0.0
2016-Apr-27 14:08N 54°36' W 001°09'0 0.0
2016-Apr-27 13:11N 54°36' W 001°09'0 0.0
2016-Apr-27 12:20N 54°36' W 001°09'0 0.0
2016-Apr-27 11:26N 54°36' W 001°09'0 0.0
2016-Apr-27 10:29N 54°36' W 001°09'0 0.0
2016-Apr-27 08:14N 54°36' W 001°09'0 0.0
2016-Apr-27 06:32N 54°36' W 001°09'0 0.0
2016-Apr-27 04:20N 54°36' W 001°09'0 0.0
2016-Apr-27 02:32N 54°36' W 001°09'0 0.0
2016-Apr-27 01:32N 54°36' W 001°09'0 0.0
2016-Apr-27 00:23N 54°36' W 001°09'0 0.0
2016-Apr-26 23:23N 54°36' W 001°09'0 0.0
2016-Apr-26 22:26N 54°36' W 001°09'0 0.0
2016-Apr-26 21:08N 54°36' W 001°09'0 0.0
2016-Apr-26 20:23N 54°36' W 001°09'0 0.0
2016-Apr-26 19:33N 54°36' W 001°09'6 6.0
2016-Apr-26 18:33N 54°42' W 001°08'1 0.5
2016-Apr-26 17:33N 54°42' W 001°09'8 8.0
2016-Apr-26 16:33N 54°49' W 001°17'2 2.1
2016-Apr-26 15:33N 54°50' W 001°20'0 0.0
2016-Apr-26 14:32N 54°50' W 001°20'0 0.0
2016-Apr-26 13:32N 54°50' W 001°20'0 0.0
2016-Apr-26 12:32N 54°50' W 001°20'0 0.0
2016-Apr-26 11:32N 54°50' W 001°20'0 0.0
2016-Apr-26 10:29N 54°50' W 001°20'0 0.0
2016-Apr-26 09:32N 54°50' W 001°20'0 0.0
2016-Apr-26 08:32N 54°50' W 001°20'0 0.0
2016-Apr-26 07:17N 54°50' W 001°20'0 0.0
2016-Apr-26 06:32N 54°50' W 001°20'0 0.0
2016-Apr-26 05:32N 54°50' W 001°20'0 0.0
2016-Apr-26 04:29N 54°50' W 001°20'0 0.0
2016-Apr-26 01:20N 54°50' W 001°20'0 0.0
2016-Apr-26 00:29N 54°50' W 001°20'0 0.0
2016-Apr-25 23:29N 54°50' W 001°20'0 0.0
2016-Apr-25 22:29N 54°50' W 001°20'0 0.0
2016-Apr-25 21:29N 54°50' W 001°20'0 0.0
2016-Apr-25 20:29N 54°50' W 001°20'0 0.0
2016-Apr-25 19:32N 54°50' W 001°20'0 0.0
2016-Apr-25 18:32N 54°50' W 001°20'0 0.0
2016-Apr-25 17:32N 54°50' W 001°20'0 0.0
2016-Apr-25 16:32N 54°50' W 001°20'0 0.0
2016-Apr-25 15:29N 54°50' W 001°20'0 0.0
2016-Apr-25 14:29N 54°50' W 001°20'0 0.0
2016-Apr-25 13:29N 54°50' W 001°20'0 0.0
2016-Apr-25 12:29N 54°50' W 001°20'0 0.0
2016-Apr-25 11:26N 54°50' W 001°20'0 0.0
2016-Apr-25 10:29N 54°50' W 001°20'0 0.0
2016-Apr-25 09:32N 54°50' W 001°20'0 0.0
2016-Apr-25 08:29N 54°50' W 001°20'0 0.0
2016-Apr-25 07:32N 54°50' W 001°20'0 0.0
2016-Apr-25 06:32N 54°50' W 001°20'0 0.0
2016-Apr-25 05:23N 54°50' W 001°20'0 0.0
2016-Apr-25 04:26N 54°50' W 001°20'0 0.0
2016-Apr-25 03:29N 54°50' W 001°20'0 0.0
2016-Apr-25 02:14N 54°50' W 001°20'0 0.0
2016-Apr-25 01:29N 54°50' W 001°20'0 0.0
2016-Apr-25 00:29N 54°50' W 001°20'0 0.0
2016-Apr-24 23:29N 54°50' W 001°20'0 0.0
2016-Apr-24 22:32N 54°50' W 001°20'0 0.0
2016-Apr-24 21:11N 54°50' W 001°20'0 0.0
2016-Apr-24 20:32N 54°50' W 001°20'0 0.0
2016-Apr-24 19:29N 54°50' W 001°20'0 0.0
2016-Apr-24 18:29N 54°50' W 001°20'0 0.0
2016-Apr-24 17:26N 54°50' W 001°20'0 0.1
2016-Apr-24 16:33N 54°50' W 001°20'2 1.5
2016-Apr-24 15:33N 54°50' W 001°17'4 3.9
2016-Apr-24 14:33N 54°50' W 001°10'8 8.2
2016-Apr-24 13:33N 54°49' W 000°56'10 9.8
2016-Apr-24 12:33N 54°48' W 000°39'1010.0
2016-Apr-24 11:32N 54°47' W 000°22'10 9.9
2016-Apr-24 10:33N 54°46' W 000°05'1110.1
2016-Apr-24 09:28N 54°45' E 000°14'150 9.3
2016-Apr-23 17:23N 54°25' E 004°31'8 9.9
2016-Apr-23 16:33N 54°23' E 004°44'1110.0
2016-Apr-23 15:25N 54°21' E 005°04'910.3
2016-Apr-23 14:33N 54°19' E 005°18'1010.2
2016-Apr-23 13:32N 54°16' E 005°36'1010.1
2016-Apr-23 12:32N 54°15' E 005°53'20 9.3
2016-Apr-23 10:25N 54°12' E 006°26'8 9.0
2016-Apr-23 09:31N 54°12' E 006°40'9 8.9
2016-Apr-23 08:33N 54°12' E 006°55'9 9.0
2016-Apr-23 07:33N 54°12' E 007°10'9 9.2
2016-Apr-23 06:33N 54°12' E 007°26'1010.0
2016-Apr-23 05:33N 54°09' E 007°42'1111.0
2016-Apr-23 04:33N 54°04' E 007°58'1211.5
2016-Apr-23 03:33N 54°00' E 008°17'1313.3
2016-Apr-23 02:33N 53°57' E 008°39'10 9.8
2016-Apr-23 01:33N 53°50' E 008°52'9 9.0
2016-Apr-23 00:33N 53°53' E 009°06'4 3.5
2016-Apr-22 23:33N 53°55' E 009°11'1 0.5
2016-Apr-22 22:28N 53°55' E 009°12'0 0.0
2016-Apr-22 21:31N 53°55' E 009°12'0 0.0
2016-Apr-22 20:31N 53°55' E 009°12'0 0.0
2016-Apr-22 19:31N 53°55' E 009°12'0 0.0
2016-Apr-22 18:25N 53°55' E 009°12'0 0.0
2016-Apr-22 17:31N 53°55' E 009°12'0 0.0
2016-Apr-22 16:28N 53°55' E 009°12'0 0.0
2016-Apr-22 15:31N 53°55' E 009°12'0 0.0
2016-Apr-22 14:31N 53°55' E 009°12'0 0.0
2016-Apr-22 13:31N 53°55' E 009°12'  

Dump ship's entire track history